Camellia — VRCP9 — position and weather

sailwx.info

Track history (hours):
 
Tides and Currents Weather Stations Pressure Air Temp Water Temp Dewpoint Dewpoint Depression Visibility Wind Speed Wind Dir Waves Ship Positions

Camellia

Last reported at 2017-Jan-17 08:28 UTC. Time now 2017-Jan-17 08:51 UTC.
Position N 16°14' W 061°33'.

Length 222 m; draft 8.2 m.

Type: Ship (hazmat cat C). MMSI: 477791900.

Date/timePositionNaut miles runAvg speedWind from/ knotsBaromVisibWave heightAir tempDewpointWater temp
2017-Jan-17 08:28N 16°14' W 061°33'0 0.0
2017-Jan-17 07:31N 16°14' W 061°33'0 0.0
2017-Jan-17 06:28N 16°14' W 061°33'0 0.0
2017-Jan-17 05:28N 16°14' W 061°33'0 0.0
2017-Jan-17 04:28N 16°14' W 061°33'0 0.0
2017-Jan-17 03:31N 16°14' W 061°33'0 0.0
2017-Jan-17 02:25N 16°14' W 061°33'0 0.0
2017-Jan-17 01:31N 16°14' W 061°33'0 0.0
2017-Jan-17 00:31N 16°14' W 061°33'0 0.0
2017-Jan-16 23:31N 16°14' W 061°33'0 0.0
2017-Jan-16 22:33N 16°14' W 061°33'0 0.0
2017-Jan-16 21:34N 16°14' W 061°33'0 0.0
2017-Jan-16 20:33N 16°14' W 061°33'0 0.0
2017-Jan-16 19:30N 16°14' W 061°33'0 0.0
2017-Jan-16 18:33N 16°14' W 061°33'0 0.0
2017-Jan-16 17:33N 16°14' W 061°33'0 0.0
2017-Jan-16 16:33N 16°14' W 061°33'0 0.0
2017-Jan-16 15:33N 16°14' W 061°33'0 0.0
2017-Jan-16 14:30N 16°14' W 061°33'0 0.0
2017-Jan-16 13:33N 16°14' W 061°33'0 0.0
2017-Jan-16 12:33N 16°14' W 061°33'0 0.0
2017-Jan-16 11:33N 16°14' W 061°33'0 0.0
2017-Jan-16 10:33N 16°14' W 061°33'0 0.0
2017-Jan-16 09:33N 16°14' W 061°33'6 5.9
2017-Jan-16 08:33N 16°09' W 061°30'1110.6
2017-Jan-16 07:33N 16°06' W 061°19'2017.8
2017-Jan-16 06:26N 16°11' W 060°59'  
2017-Jan-11 21:33N 37°59' W 031°37'2519.1
2017-Jan-11 20:16N 38°13' W 031°11'1519.4
2017-Jan-11 19:31N 38°21' W 030°55'2019.3
2017-Jan-11 18:27N 38°33' W 030°34'1719.4
2017-Jan-11 17:33N 38°43' W 030°16'1919.5
2017-Jan-11 16:34N 38°53' W 029°54'1919.2
2017-Jan-11 15:33N 39°02' W 029°33'1919.4
2017-Jan-11 14:33N 39°12' W 029°11'1919.3
2017-Jan-11 13:33N 39°20' W 028°48'1919.1
2017-Jan-11 12:33N 39°30' W 028°27'1919.1
2017-Jan-11 11:33N 39°39' W 028°05'  
2017-Jan-09 04:21N 46°25' W 005°49'1518.8
2017-Jan-09 03:32N 46°29' W 005°28'1918.9
2017-Jan-09 02:33N 46°34' W 005°01'2018.9
2017-Jan-09 01:28N 46°40' W 004°33'1818.8
2017-Jan-09 00:31N 46°44' W 004°08'1818.5
2017-Jan-08 23:33N 46°49' W 003°42'1918.8
2017-Jan-08 22:33N 46°54' W 003°16'1918.5
2017-Jan-08 21:33N 46°59' W 002°50'1817.6
2017-Jan-08 20:33N 47°05' W 002°26'1413.2
2017-Jan-08 19:32N 47°15' W 002°12'3 1.4
2017-Jan-08 17:12N 47°18' W 002°09'0 0.0
2017-Jan-08 15:05N 47°18' W 002°09'0 0.0
2017-Jan-08 13:26N 47°18' W 002°09'0 0.0
2017-Jan-08 12:29N 47°18' W 002°09'0 0.0
2017-Jan-08 11:26N 47°18' W 002°09'0 0.0
2017-Jan-08 10:20N 47°18' W 002°09'0 0.0
2017-Jan-08 09:23N 47°18' W 002°09'0 0.0
2017-Jan-08 08:32N 47°18' W 002°09'0 0.0
2017-Jan-08 04:18N 47°18' W 002°09'0 0.0
2017-Jan-08 03:29N 47°18' W 002°09'0 0.0
2017-Jan-08 01:32N 47°18' W 002°09'0 0.0
2017-Jan-08 00:32N 47°18' W 002°09'0 0.0
2017-Jan-07 23:32N 47°18' W 002°09'0 0.0
2017-Jan-07 22:32N 47°18' W 002°09'0 0.0
2017-Jan-07 21:32N 47°18' W 002°09'0 0.0
2017-Jan-07 20:32N 47°18' W 002°09'0 0.0
2017-Jan-07 19:31N 47°18' W 002°09'6 5.3
2017-Jan-07 18:19N 47°13' W 002°16'911.3
2017-Jan-07 17:34N 47°06' W 002°23'1312.9
2017-Jan-07 16:33N 46°60' W 002°40'8 8.5
2017-Jan-07 15:33N 46°58' W 002°52'2 1.8
2017-Jan-07 14:33N 46°59' W 002°50'1616.3
2017-Jan-07 13:33N 47°07' W 003°11'1818.0
2017-Jan-07 12:33N 47°15' W 003°35'1918.3
2017-Jan-07 11:32N 47°23' W 004°00'1818.5
2017-Jan-07 10:33N 47°29' W 004°25'3617.7
2017-Jan-07 08:31N 47°49' W 005°09'  
Track history (hours):
 
Tides and Currents Weather Stations Pressure Air Temp Water Temp Dewpoint Dewpoint Depression Visibility Wind Speed Wind Dir Waves Ship Positions

Camellia

Last reported at 2017-Jan-17 08:28 UTC. Time now 2017-Jan-17 08:51 UTC.
Position N 16°14' W 061°33'.

Length 222 m; draft 8.2 m.

Type: Ship (hazmat cat C). MMSI: 477791900.

Date/timePositionNaut miles runAvg speedWind from/ knotsBaromVisibWave heightAir tempDewpointWater temp
2017-Jan-17 08:28N 16°14' W 061°33'0 0.0
2017-Jan-17 07:31N 16°14' W 061°33'0 0.0
2017-Jan-17 06:28N 16°14' W 061°33'0 0.0
2017-Jan-17 05:28N 16°14' W 061°33'0 0.0
2017-Jan-17 04:28N 16°14' W 061°33'0 0.0
2017-Jan-17 03:31N 16°14' W 061°33'0 0.0
2017-Jan-17 02:25N 16°14' W 061°33'0 0.0
2017-Jan-17 01:31N 16°14' W 061°33'0 0.0
2017-Jan-17 00:31N 16°14' W 061°33'0 0.0
2017-Jan-16 23:31N 16°14' W 061°33'0 0.0
2017-Jan-16 22:33N 16°14' W 061°33'0 0.0
2017-Jan-16 21:34N 16°14' W 061°33'0 0.0
2017-Jan-16 20:33N 16°14' W 061°33'0 0.0
2017-Jan-16 19:30N 16°14' W 061°33'0 0.0
2017-Jan-16 18:33N 16°14' W 061°33'0 0.0
2017-Jan-16 17:33N 16°14' W 061°33'0 0.0
2017-Jan-16 16:33N 16°14' W 061°33'0 0.0
2017-Jan-16 15:33N 16°14' W 061°33'0 0.0
2017-Jan-16 14:30N 16°14' W 061°33'0 0.0
2017-Jan-16 13:33N 16°14' W 061°33'0 0.0
2017-Jan-16 12:33N 16°14' W 061°33'0 0.0
2017-Jan-16 11:33N 16°14' W 061°33'0 0.0
2017-Jan-16 10:33N 16°14' W 061°33'0 0.0
2017-Jan-16 09:33N 16°14' W 061°33'6 5.9
2017-Jan-16 08:33N 16°09' W 061°30'1110.6
2017-Jan-16 07:33N 16°06' W 061°19'2017.8
2017-Jan-16 06:26N 16°11' W 060°59'  
2017-Jan-11 21:33N 37°59' W 031°37'2519.1
2017-Jan-11 20:16N 38°13' W 031°11'1519.4
2017-Jan-11 19:31N 38°21' W 030°55'2019.3
2017-Jan-11 18:27N 38°33' W 030°34'1719.4
2017-Jan-11 17:33N 38°43' W 030°16'1919.5
2017-Jan-11 16:34N 38°53' W 029°54'1919.2
2017-Jan-11 15:33N 39°02' W 029°33'1919.4
2017-Jan-11 14:33N 39°12' W 029°11'1919.3
2017-Jan-11 13:33N 39°20' W 028°48'1919.1
2017-Jan-11 12:33N 39°30' W 028°27'1919.1
2017-Jan-11 11:33N 39°39' W 028°05'  
2017-Jan-09 04:21N 46°25' W 005°49'1518.8
2017-Jan-09 03:32N 46°29' W 005°28'1918.9
2017-Jan-09 02:33N 46°34' W 005°01'2018.9
2017-Jan-09 01:28N 46°40' W 004°33'1818.8
2017-Jan-09 00:31N 46°44' W 004°08'1818.5
2017-Jan-08 23:33N 46°49' W 003°42'1918.8
2017-Jan-08 22:33N 46°54' W 003°16'1918.5
2017-Jan-08 21:33N 46°59' W 002°50'1817.6
2017-Jan-08 20:33N 47°05' W 002°26'1413.2
2017-Jan-08 19:32N 47°15' W 002°12'3 1.4
2017-Jan-08 17:12N 47°18' W 002°09'0 0.0
2017-Jan-08 15:05N 47°18' W 002°09'0 0.0
2017-Jan-08 13:26N 47°18' W 002°09'0 0.0
2017-Jan-08 12:29N 47°18' W 002°09'0 0.0
2017-Jan-08 11:26N 47°18' W 002°09'0 0.0
2017-Jan-08 10:20N 47°18' W 002°09'0 0.0
2017-Jan-08 09:23N 47°18' W 002°09'0 0.0
2017-Jan-08 08:32N 47°18' W 002°09'0 0.0
2017-Jan-08 04:18N 47°18' W 002°09'0 0.0
2017-Jan-08 03:29N 47°18' W 002°09'0 0.0
2017-Jan-08 01:32N 47°18' W 002°09'0 0.0
2017-Jan-08 00:32N 47°18' W 002°09'0 0.0
2017-Jan-07 23:32N 47°18' W 002°09'0 0.0
2017-Jan-07 22:32N 47°18' W 002°09'0 0.0
2017-Jan-07 21:32N 47°18' W 002°09'0 0.0
2017-Jan-07 20:32N 47°18' W 002°09'0 0.0
2017-Jan-07 19:31N 47°18' W 002°09'6 5.3
2017-Jan-07 18:19N 47°13' W 002°16'911.3
2017-Jan-07 17:34N 47°06' W 002°23'1312.9
2017-Jan-07 16:33N 46°60' W 002°40'8 8.5
2017-Jan-07 15:33N 46°58' W 002°52'2 1.8
2017-Jan-07 14:33N 46°59' W 002°50'1616.3
2017-Jan-07 13:33N 47°07' W 003°11'1818.0
2017-Jan-07 12:33N 47°15' W 003°35'1918.3
2017-Jan-07 11:32N 47°23' W 004°00'1818.5
2017-Jan-07 10:33N 47°29' W 004°25'3617.7
2017-Jan-07 08:31N 47°49' W 005°09'  

Dump ship's entire track history